createdAt,value
2022-09-07T00:00:07.349Z,28.4
2022-09-07T00:01:09.837Z,28.4
2022-09-07T00:02:12.032Z,28.5
2022-09-07T00:03:14.669Z,28.5
2022-09-07T00:04:17.857Z,28.5
2022-09-07T00:05:20.267Z,28.5
2022-09-07T00:06:22.750Z,28.5
2022-09-07T00:07:24.952Z,28.5
2022-09-07T00:08:27.720Z,28.5
2022-09-07T00:09:30.572Z,28.5
2022-09-07T00:10:33.045Z,28.5
2022-09-07T00:11:35.524Z,28.5
2022-09-07T00:12:37.994Z,28.5
2022-09-07T00:13:40.501Z,28.5
2022-09-07T00:14:42.128Z,28.5
2022-09-07T00:15:44.763Z,28.5
2022-09-07T00:16:47.177Z,28.5
2022-09-07T00:17:49.647Z,28.5
2022-09-07T00:18:51.822Z,28.5
2022-09-07T00:19:54.306Z,28.5
2022-09-07T00:20:56.482Z,28.5
2022-09-07T00:21:58.682Z,28.5
2022-09-07T00:23:01.150Z,28.5
2022-09-07T00:24:03.347Z,28.5
2022-09-07T00:25:05.831Z,28.5
2022-09-07T00:26:08.056Z,28.5
2022-09-07T00:27:10.251Z,28.5
2022-09-07T00:28:12.730Z,28.5
2022-09-07T00:29:15.201Z,28.5
2022-09-07T00:30:17.685Z,28.6
2022-09-07T00:31:20.465Z,28.6
2022-09-07T00:32:23.158Z,28.6
2022-09-07T00:33:25.373Z,28.6
2022-09-07T00:34:27.564Z,28.6
2022-09-07T00:35:29.756Z,28.6
2022-09-07T00:36:32.251Z,28.6
2022-09-07T00:37:34.450Z,28.6
2022-09-07T00:38:36.655Z,28.6
2022-09-07T00:39:39.447Z,28.6
2022-09-07T00:40:41.783Z,28.6
2022-09-07T00:41:44.259Z,28.6
2022-09-07T00:42:46.758Z,28.6
2022-09-07T00:43:48.931Z,28.6
2022-09-07T00:44:51.415Z,28.6
2022-09-07T00:45:53.900Z,28.6
2022-09-07T00:46:56.606Z,28.6
2022-09-07T00:47:59.046Z,28.6
2022-09-07T00:49:01.219Z,28.6
2022-09-07T00:50:03.427Z,28.6
2022-09-07T00:51:05.915Z,28.6
2022-09-07T00:52:07.823Z,28.6
2022-09-07T00:53:10.284Z,28.6
2022-09-07T00:54:12.765Z,28.7
2022-09-07T00:55:14.958Z,28.6
2022-09-07T00:56:17.434Z,28.6
2022-09-07T00:57:19.633Z,28.6
2022-09-07T00:58:22.103Z,28.7
2022-09-07T00:59:24.570Z,28.7
2022-09-07T01:00:27.129Z,28.7
2022-09-07T01:01:29.704Z,28.7
2022-09-07T01:02:33.206Z,28.7
2022-09-07T01:03:35.902Z,28.7
2022-09-07T01:04:38.096Z,28.7
2022-09-07T01:05:40.288Z,28.7
2022-09-07T01:06:42.763Z,28.7
2022-09-07T01:07:45.260Z,28.7
2022-09-07T01:08:47.454Z,28.7
2022-09-07T01:09:49.645Z,28.7
2022-09-07T01:10:51.850Z,28.7
2022-09-07T01:11:54.329Z,28.7
2022-09-07T01:12:56.807Z,28.7
2022-09-07T01:13:59.281Z,28.7
2022-09-07T01:15:01.752Z,28.7
2022-09-07T01:16:04.552Z,28.7
2022-09-07T01:17:06.746Z,28.7
2022-09-07T01:18:08.951Z,28.7
2022-09-07T01:19:11.151Z,28.7
2022-09-07T01:20:13.643Z,28.7
2022-09-07T01:21:16.118Z,28.7
2022-09-07T01:22:18.584Z,28.7
2022-09-07T01:23:21.075Z,28.7
2022-09-07T01:24:23.554Z,28.7
2022-09-07T01:25:25.229Z,28.7
2022-09-07T01:26:27.141Z,28.7
2022-09-07T01:27:29.614Z,28.7
2022-09-07T01:28:32.579Z,28.7
2022-09-07T01:29:35.047Z,28.7
2022-09-07T01:30:37.242Z,28.7
2022-09-07T01:31:39.728Z,28.7
2022-09-07T01:32:42.204Z,28.7
2022-09-07T01:33:44.674Z,28.7
2022-09-07T01:34:47.148Z,28.7
2022-09-07T01:35:49.632Z,28.7
2022-09-07T01:36:51.829Z,28.7
2022-09-07T01:38:59.293Z,28.7
2022-09-07T01:40:01.723Z,28.7
2022-09-07T01:41:04.172Z,28.8
2022-09-07T01:42:06.643Z,28.7
2022-09-07T01:43:09.123Z,28.7
2022-09-07T01:44:11.600Z,28.8
2022-09-07T01:45:14.095Z,28.8
2022-09-07T01:46:16.206Z,28.8
2022-09-07T01:47:18.886Z,28.7
2022-09-07T01:48:21.116Z,28.8
2022-09-07T01:49:23.607Z,28.8
2022-09-07T01:50:26.082Z,28.8
2022-09-07T01:51:28.590Z,28.8
2022-09-07T01:52:31.073Z,28.8
2022-09-07T01:53:33.263Z,28.8
2022-09-07T01:54:35.174Z,28.8
2022-09-07T01:55:37.376Z,28.8
2022-09-07T01:56:39.848Z,28.8
2022-09-07T01:57:42.027Z,28.8
2022-09-07T01:58:44.495Z,28.8
2022-09-07T01:59:46.435Z,28.8
2022-09-07T02:00:48.904Z,28.8
2022-09-07T02:01:51.411Z,28.8
2022-09-07T02:02:54.108Z,28.8
2022-09-07T02:03:56.750Z,28.8
2022-09-07T02:04:58.647Z,28.8
2022-09-07T02:06:01.117Z,28.8
2022-09-07T02:07:03.605Z,28.8
2022-09-07T02:08:06.092Z,28.8
2022-09-07T02:09:08.561Z,28.8
2022-09-07T02:10:10.467Z,28.8
2022-09-07T02:11:12.717Z,28.8
2022-09-07T02:12:14.619Z,28.8
2022-09-07T02:13:17.094Z,28.8
2022-09-07T02:14:19.571Z,28.8
2022-09-07T02:15:22.045Z,28.8
2022-09-07T02:16:24.758Z,28.8
2022-09-07T02:17:26.950Z,28.8
2022-09-07T02:18:29.124Z,28.8
2022-09-07T02:19:31.593Z,28.8
2022-09-07T02:20:34.068Z,28.8
2022-09-07T02:21:36.262Z,28.8
2022-09-07T02:22:38.745Z,28.8
2022-09-07T02:23:40.945Z,28.8
2022-09-07T02:24:43.472Z,28.8
2022-09-07T02:25:45.952Z,28.8
2022-09-07T02:26:48.132Z,28.8
2022-09-07T02:27:50.602Z,28.8
2022-09-07T02:28:53.073Z,28.8
2022-09-07T02:29:55.541Z,28.8
2022-09-07T02:30:58.209Z,28.8
2022-09-07T02:32:00.871Z,28.8
2022-09-07T02:33:03.338Z,28.8
2022-09-07T02:34:05.832Z,28.8
2022-09-07T02:35:08.297Z,28.8
2022-09-07T02:36:10.784Z,28.8
2022-09-07T02:37:12.982Z,28.8
2022-09-07T02:38:15.196Z,28.8
2022-09-07T02:39:17.394Z,28.8
2022-09-07T02:40:19.871Z,28.8
2022-09-07T02:41:22.340Z,28.8
2022-09-07T02:42:24.816Z,28.8
2022-09-07T02:43:26.731Z,28.8
2022-09-07T02:44:28.929Z,28.8
2022-09-07T02:45:31.118Z,28.8
2022-09-07T02:46:33.845Z,28.8
2022-09-07T02:47:36.213Z,28.8
2022-09-07T02:48:38.411Z,28.8
2022-09-07T02:49:40.884Z,28.8
2022-09-07T02:50:43.367Z,28.8
2022-09-07T02:51:45.573Z,28.8
2022-09-07T02:52:48.123Z,28.8
2022-09-07T02:53:50.322Z,28.8
2022-09-07T02:54:52.795Z,28.8
2022-09-07T02:55:55.264Z,28.8
2022-09-07T02:56:57.199Z,28.8
2022-09-07T02:57:59.374Z,28.8
2022-09-07T02:59:01.296Z,28.8
2022-09-07T03:00:03.507Z,28.8
2022-09-07T03:01:05.916Z,28.8
2022-09-07T03:02:08.466Z,28.8
2022-09-07T03:03:11.041Z,28.8
2022-09-07T03:04:13.519Z,28.8
2022-09-07T03:05:15.998Z,28.8
2022-09-07T03:06:18.192Z,28.8
2022-09-07T03:07:20.667Z,28.8
2022-09-07T03:08:23.151Z,28.8
2022-09-07T03:09:25.744Z,28.7
2022-09-07T03:10:28.243Z,28.7
2022-09-07T03:11:30.833Z,28.7
2022-09-07T03:12:33.338Z,28.7
2022-09-07T03:13:35.243Z,28.6
2022-09-07T03:14:37.746Z,28.6
2022-09-07T03:15:40.560Z,28.6
2022-09-07T03:16:43.213Z,28.6
2022-09-07T03:17:45.684Z,28.6
2022-09-07T03:18:48.251Z,28.6
2022-09-07T03:19:50.737Z,28.6
2022-09-07T03:20:52.927Z,28.5
2022-09-07T03:21:55.401Z,28.5
2022-09-07T03:22:57.878Z,28.5
2022-09-07T03:24:00.091Z,28.5
2022-09-07T03:25:02.565Z,28.5
2022-09-07T03:26:05.048Z,28.5
2022-09-07T03:27:07.524Z,28.5
2022-09-07T03:28:09.459Z,28.5
2022-09-07T03:29:11.984Z,28.5
2022-09-07T03:30:14.468Z,28.5
2022-09-07T03:31:17.137Z,28.5
2022-09-07T03:32:19.591Z,28.5
2022-09-07T03:33:22.069Z,28.5
2022-09-07T03:34:24.245Z,28.4
2022-09-07T03:35:26.728Z,28.4
2022-09-07T03:36:28.898Z,28.4
2022-09-07T03:37:31.370Z,28.4
2022-09-07T03:38:33.920Z,28.4
2022-09-07T03:39:36.597Z,28.4
2022-09-07T03:40:39.217Z,28.4
2022-09-07T03:41:41.154Z,28.4
2022-09-07T03:42:43.360Z,28.4
2022-09-07T03:43:45.268Z,28.4
2022-09-07T03:44:47.482Z,28.4
2022-09-07T03:45:49.564Z,28.4
2022-09-07T03:46:52.203Z,28.4
2022-09-07T03:47:54.693Z,28.4
2022-09-07T03:48:57.158Z,28.4
2022-09-07T03:49:59.354Z,28.4
2022-09-07T03:51:01.583Z,28.4
2022-09-07T03:52:04.083Z,28.3
2022-09-07T03:53:06.551Z,28.4
2022-09-07T03:54:08.747Z,28.3
2022-09-07T03:55:11.230Z,28.3
2022-09-07T03:56:13.456Z,28.3
2022-09-07T03:57:15.662Z,28.3
2022-09-07T03:58:18.139Z,28.3
2022-09-07T03:59:20.603Z,28.3
2022-09-07T04:00:22.796Z,28.3
2022-09-07T04:01:25.521Z,28.3
2022-09-07T04:02:27.859Z,28.3
2022-09-07T04:03:30.226Z,28.3
2022-09-07T04:04:31.854Z,28.3
2022-09-07T04:05:34.065Z,28.3
2022-09-07T04:06:35.986Z,28.3
2022-09-07T04:07:38.457Z,28.3
2022-09-07T04:08:40.658Z,28.3
2022-09-07T04:09:42.584Z,28.3
2022-09-07T04:10:44.848Z,28.3
2022-09-07T04:11:47.013Z,28.3
2022-09-07T04:12:48.914Z,28.3
2022-09-07T04:13:51.113Z,28.3
2022-09-07T04:14:53.287Z,28.3
2022-09-07T04:15:55.208Z,28.3
2022-09-07T04:16:57.630Z,28.3
2022-09-07T04:18:00.309Z,28.3
2022-09-07T04:19:02.781Z,28.3
2022-09-07T04:20:05.276Z,28.3
2022-09-07T04:21:07.477Z,28.3
2022-09-07T04:22:09.683Z,28.3
2022-09-07T04:23:11.604Z,28.3
2022-09-07T04:24:14.087Z,28.3
2022-09-07T04:25:16.567Z,28.3
2022-09-07T04:26:19.048Z,28.3
2022-09-07T04:27:21.512Z,28.3
2022-09-07T04:28:23.438Z,28.3
2022-09-07T04:29:25.659Z,28.3
2022-09-07T04:30:27.939Z,28.3
2022-09-07T04:31:30.668Z,28.3
2022-09-07T04:32:33.161Z,28.3
2022-09-07T04:33:35.365Z,28.3
2022-09-07T04:34:37.854Z,28.3
2022-09-07T04:35:40.328Z,28.3
2022-09-07T04:36:42.533Z,28.3
2022-09-07T04:37:45.000Z,28.3
2022-09-07T04:38:47.203Z,28.3
2022-09-07T04:39:49.571Z,28.3
2022-09-07T04:40:52.042Z,28.3
2022-09-07T04:41:54.500Z,28.2
2022-09-07T04:42:56.716Z,28.2
2022-09-07T04:43:59.217Z,28.2
2022-09-07T04:45:01.701Z,28.2
2022-09-07T04:46:04.333Z,28.3
2022-09-07T04:47:06.730Z,28.2
2022-09-07T04:48:08.655Z,28.2
2022-09-07T04:49:10.861Z,28.2
2022-09-07T04:50:13.074Z,28.2
2022-09-07T04:51:15.260Z,28.2
2022-09-07T04:52:17.732Z,28.2
2022-09-07T04:53:19.944Z,28.2
2022-09-07T04:54:22.406Z,28.2
2022-09-07T04:55:24.882Z,28.2
2022-09-07T04:56:27.076Z,28.2
2022-09-07T04:57:29.287Z,28.2
2022-09-07T04:58:32.282Z,28.2
2022-09-07T04:59:34.186Z,28.2
2022-09-07T05:00:36.659Z,28.2
2022-09-07T05:01:39.337Z,28.2
2022-09-07T05:02:42.158Z,28.2
2022-09-07T05:03:44.920Z,28.2
2022-09-07T05:04:47.136Z,28.2
2022-09-07T05:05:49.609Z,28.2
2022-09-07T05:06:52.086Z,28.2
2022-09-07T05:07:54.559Z,28.2
2022-09-07T05:08:56.733Z,28.2
2022-09-07T05:09:59.206Z,28.2
2022-09-07T05:11:01.430Z,28.2
2022-09-07T05:12:03.633Z,28.2
2022-09-07T05:13:05.836Z,28.2
2022-09-07T05:14:08.040Z,28.2
2022-09-07T05:15:10.514Z,28.2
2022-09-07T05:16:13.173Z,28.2
2022-09-07T05:17:15.613Z,28.2
2022-09-07T05:18:18.076Z,28.2
2022-09-07T05:19:20.306Z,28.2
2022-09-07T05:20:22.773Z,28.2
2022-09-07T05:21:24.980Z,28.2
2022-09-07T05:22:27.195Z,28.2
2022-09-07T05:23:29.667Z,28.2
2022-09-07T05:24:32.162Z,28.2
2022-09-07T05:25:34.654Z,28.2
2022-09-07T05:26:37.123Z,28.2
2022-09-07T05:27:39.618Z,28.2
2022-09-07T05:28:41.805Z,28.2
2022-09-07T05:31:54.284Z,28.2
2022-09-07T05:32:56.767Z,28.2
2022-09-07T05:35:04.018Z,28.2
2022-09-07T05:36:06.222Z,28.2
2022-09-07T05:37:08.701Z,28.2
2022-09-07T05:38:10.903Z,28.2
2022-09-07T05:39:13.099Z,28.2
2022-09-07T05:40:15.339Z,28.2
2022-09-07T05:41:17.927Z,28.2
2022-09-07T05:42:19.864Z,28.2
2022-09-07T05:43:22.337Z,28.2
2022-09-07T05:45:29.417Z,28.2
2022-09-07T05:46:32.003Z,28.2
2022-09-07T05:47:34.520Z,28.2
2022-09-07T05:48:37.007Z,28.2
2022-09-07T05:49:39.192Z,28.2
2022-09-07T05:50:41.717Z,28.2
2022-09-07T05:51:44.207Z,28.2
2022-09-07T05:52:46.415Z,28.2
2022-09-07T05:53:48.360Z,28.2
2022-09-07T05:54:50.572Z,28.2
2022-09-07T05:55:57.049Z,28.2
2022-09-07T05:56:58.956Z,28.2
2022-09-07T05:58:01.463Z,28.2
2022-09-07T05:59:03.120Z,28.2
2022-09-07T06:00:05.621Z,28.2
2022-09-07T06:01:07.820Z,28.2
2022-09-07T06:02:10.196Z,28.2
2022-09-07T06:03:13.517Z,28.2
2022-09-07T06:04:16.203Z,28.2
2022-09-07T06:05:18.685Z,28.2
2022-09-07T06:06:20.884Z,28.2
2022-09-07T06:07:24.161Z,28.2
2022-09-07T06:08:26.711Z,28.2
2022-09-07T06:11:38.986Z,28.2
2022-09-07T06:13:46.653Z,28.2
2022-09-07T06:14:49.120Z,28.2
2022-09-07T06:15:51.322Z,28.2
2022-09-07T06:16:54.025Z,28.2
2022-09-07T06:17:56.654Z,28.2
2022-09-07T06:18:58.831Z,28.2
2022-09-07T06:20:01.005Z,28.2
2022-09-07T06:21:03.204Z,28.2
2022-09-07T06:22:05.405Z,28.2
2022-09-07T06:23:07.606Z,28.2
2022-09-07T06:24:10.087Z,28.2
2022-09-07T06:25:12.558Z,28.2
2022-09-07T06:26:15.029Z,28.2
2022-09-07T06:27:17.227Z,28.2
2022-09-07T06:28:19.714Z,28.2
2022-09-07T06:29:22.190Z,28.2
2022-09-07T06:30:24.695Z,28.2
2022-09-07T06:31:27.836Z,28.2
2022-09-07T06:33:36.189Z,28.2
2022-09-07T06:34:38.691Z,28.2
2022-09-07T06:35:41.190Z,28.2
2022-09-07T06:36:43.657Z,28.2
2022-09-07T06:37:46.131Z,28.2
2022-09-07T06:38:48.336Z,28.2
2022-09-07T06:39:50.986Z,28.2
2022-09-07T06:41:58.682Z,28.2
2022-09-07T06:43:00.963Z,28.2
2022-09-07T06:44:03.173Z,28.2
2022-09-07T06:45:05.646Z,28.2
2022-09-07T06:47:12.558Z,28.1
2022-09-07T06:48:15.053Z,28.2
2022-09-07T06:49:17.547Z,28.1
2022-09-07T06:50:19.759Z,28.1
2022-09-07T06:51:22.246Z,28.1
2022-09-07T06:52:25.285Z,28.1
2022-09-07T06:55:37.728Z,28.2
2022-09-07T06:56:40.214Z,28.2
2022-09-07T06:57:42.415Z,28.2
2022-09-07T06:58:44.887Z,28.2
2022-09-07T06:59:47.089Z,28.2
2022-09-07T07:00:49.316Z,28.2
2022-09-07T07:01:51.984Z,28.2
2022-09-07T07:02:54.406Z,28.2
2022-09-07T07:03:56.866Z,28.2
2022-09-07T07:04:58.806Z,28.2
2022-09-07T07:06:01.035Z,28.2
2022-09-07T07:07:03.511Z,28.1
2022-09-07T07:08:05.738Z,28.2
2022-09-07T07:09:07.988Z,28.2
2022-09-07T07:10:10.201Z,28.2
2022-09-07T07:11:12.680Z,28.2
2022-09-07T07:13:35.819Z,28.2
2022-09-07T07:15:43.031Z,28.2
2022-09-07T07:16:45.425Z,28.2
2022-09-07T07:18:53.100Z,28.2
2022-09-07T07:19:55.564Z,28.1
2022-09-07T07:20:57.208Z,28.2
2022-09-07T07:23:04.698Z,28.1
2022-09-07T07:24:08.968Z,28.1
2022-09-07T07:25:11.449Z,28.2
2022-09-07T07:26:13.949Z,28.1
2022-09-07T07:27:16.426Z,28.1
2022-09-07T07:29:39.059Z,28.2
2022-09-07T07:30:41.265Z,28.2
2022-09-07T07:31:43.762Z,28.1
2022-09-07T07:32:46.240Z,28.1
2022-09-07T07:33:49.050Z,28.2
2022-09-07T07:34:51.700Z,28.1
2022-09-07T07:35:53.907Z,28.1
2022-09-07T07:36:56.394Z,28.1
2022-09-07T07:39:04.604Z,28.1
2022-09-07T07:42:17.118Z,28.1
2022-09-07T07:43:19.597Z,28.1
2022-09-07T07:44:22.113Z,28.1
2022-09-07T07:46:29.757Z,28.1
2022-09-07T07:47:32.503Z,28.1
2022-09-07T07:48:34.719Z,28.1
2022-09-07T07:49:36.984Z,28.1
2022-09-07T07:50:39.507Z,28.1
2022-09-07T07:53:51.733Z,28.1
2022-09-07T07:54:53.958Z,28.1
2022-09-07T07:55:56.184Z,28.1
2022-09-07T07:56:58.408Z,28.1
2022-09-07T07:58:00.913Z,28.1
2022-09-07T07:59:03.115Z,28.1
2022-09-07T08:00:05.592Z,28.1
2022-09-07T08:01:08.230Z,28.1
2022-09-07T08:02:10.627Z,28.1
2022-09-07T08:03:13.365Z,28.1
2022-09-07T08:04:15.573Z,28.1
2022-09-07T08:05:18.126Z,28.1
2022-09-07T08:06:20.644Z,28.1
2022-09-07T08:07:22.865Z,28.1
2022-09-07T08:08:25.380Z,28.1
2022-09-07T08:09:27.865Z,28.1
2022-09-07T08:10:30.358Z,28.1
2022-09-07T08:11:32.566Z,28.1
2022-09-07T08:12:34.776Z,28.1
2022-09-07T08:13:36.956Z,28.1
2022-09-07T08:14:39.439Z,28.1
2022-09-07T08:15:41.942Z,28.1
2022-09-07T08:16:44.378Z,28.1
2022-09-07T08:17:46.928Z,28.1
2022-09-07T08:18:49.420Z,28.1
2022-09-07T08:19:51.613Z,28.1
2022-09-07T08:20:53.881Z,28.1
2022-09-07T08:21:56.223Z,28.1
2022-09-07T08:22:58.436Z,28.1
2022-09-07T08:24:00.696Z,28.1
2022-09-07T08:25:02.720Z,28.1
2022-09-07T08:26:05.210Z,28.1
2022-09-07T08:27:07.133Z,28.1
2022-09-07T08:28:09.618Z,28.1
2022-09-07T08:29:11.884Z,28.1
2022-09-07T08:30:14.359Z,28.1
2022-09-07T08:31:16.906Z,28.1
2022-09-07T08:32:19.618Z,28.1
2022-09-07T08:33:22.092Z,28.1
2022-09-07T08:34:24.283Z,28.1
2022-09-07T08:35:26.761Z,28.1
2022-09-07T08:36:29.031Z,28.1
2022-09-07T08:37:31.790Z,28.1
2022-09-07T08:38:33.986Z,28.1
2022-09-07T08:39:36.093Z,28.1
2022-09-07T08:40:38.224Z,28.1
2022-09-07T08:41:40.441Z,28.1
2022-09-07T08:42:42.662Z,28.1
2022-09-07T08:44:50.163Z,28.1
2022-09-07T08:45:52.670Z,28.1
2022-09-07T08:46:55.116Z,28.1
2022-09-07T08:47:57.866Z,28.1
2022-09-07T08:49:00.040Z,28.1
2022-09-07T08:50:02.021Z,28.1
2022-09-07T08:51:04.503Z,28.1
2022-09-07T08:52:07.039Z,28.1
2022-09-07T08:53:09.547Z,28.1
2022-09-07T08:54:12.022Z,28.1
2022-09-07T08:55:14.515Z,28.1
2022-09-07T08:56:16.465Z,28.1
2022-09-07T08:59:28.353Z,28.1
2022-09-07T09:00:31.063Z,28.1
2022-09-07T09:01:35.662Z,28.1
2022-09-07T09:05:54.572Z,28.1
2022-09-07T09:06:57.878Z,28.1
2022-09-07T09:08:01.055Z,28.1
2022-09-07T09:09:03.680Z,28.1
2022-09-07T09:10:05.890Z,28.1
2022-09-07T09:11:08.367Z,28.1
2022-09-07T09:12:10.845Z,28.1
2022-09-07T09:13:13.042Z,28.1
2022-09-07T09:14:15.227Z,28.2
2022-09-07T09:15:17.479Z,28.2
2022-09-07T09:16:20.346Z,28.2
2022-09-07T09:17:23.076Z,28.2
2022-09-07T09:18:25.760Z,28.2
2022-09-07T09:19:28.247Z,28.2
2022-09-07T09:20:30.168Z,28.2
2022-09-07T09:21:32.365Z,28.2
2022-09-07T09:22:34.294Z,28.2
2022-09-07T09:23:36.891Z,28.2
2022-09-07T09:24:39.476Z,28.2
2022-09-07T09:25:41.961Z,28.2
2022-09-07T09:26:44.313Z,28.2
2022-09-07T09:27:46.654Z,28.2
2022-09-07T09:28:48.848Z,28.2
2022-09-07T09:29:51.077Z,28.2
2022-09-07T09:30:53.155Z,28.2
2022-09-07T09:31:55.742Z,28.2
2022-09-07T09:32:58.220Z,28.2
2022-09-07T09:34:00.711Z,28.2
2022-09-07T09:35:02.958Z,28.2
2022-09-07T09:36:05.428Z,28.2
2022-09-07T09:37:07.923Z,28.2
2022-09-07T09:38:10.123Z,28.2
2022-09-07T09:39:12.114Z,28.2
2022-09-07T09:40:15.083Z,28.2
2022-09-07T09:41:17.563Z,28.2
2022-09-07T09:42:19.754Z,28.2
2022-09-07T09:43:22.250Z,28.2
2022-09-07T09:44:24.732Z,28.2
2022-09-07T09:45:27.418Z,28.2
2022-09-07T09:46:30.233Z,28.2
2022-09-07T09:47:33.088Z,28.2
2022-09-07T09:48:35.393Z,28.2
2022-09-07T09:49:37.612Z,28.2
2022-09-07T09:53:55.089Z,28.2
2022-09-07T09:56:02.598Z,28.2
2022-09-07T09:57:04.834Z,28.2
2022-09-07T10:01:26.796Z,28.2
2022-09-07T10:04:40.623Z,28.2
2022-09-07T10:05:43.095Z,28.2
2022-09-07T10:06:45.573Z,28.2
2022-09-07T10:07:48.060Z,28.2
2022-09-07T10:08:50.258Z,28.2
2022-09-07T10:09:52.728Z,28.2
2022-09-07T10:10:55.226Z,28.2
2022-09-07T10:13:02.184Z,28.2
2022-09-07T10:14:04.719Z,28.2
2022-09-07T10:15:06.932Z,28.2
2022-09-07T10:16:09.641Z,28.2
2022-09-07T10:17:12.098Z,28.2
2022-09-07T10:18:14.578Z,28.2
2022-09-07T10:19:16.781Z,28.2
2022-09-07T10:20:18.989Z,28.2
2022-09-07T10:21:21.470Z,28.2
2022-09-07T10:22:23.941Z,28.2
2022-09-07T10:23:26.155Z,28.2
2022-09-07T10:24:28.628Z,28.2
2022-09-07T10:25:30.831Z,28.2
2022-09-07T10:26:33.056Z,28.2
2022-09-07T10:27:35.277Z,28.2
2022-09-07T10:29:42.554Z,28.2
2022-09-07T10:30:45.289Z,28.2
2022-09-07T10:31:47.656Z,28.2
2022-09-07T10:32:50.152Z,28.2
2022-09-07T10:34:57.522Z,28.2
2022-09-07T10:35:59.749Z,28.2
2022-09-07T10:37:02.239Z,28.2
2022-09-07T10:38:04.429Z,28.2
2022-09-07T10:39:06.911Z,28.2
2022-09-07T10:40:08.726Z,28.2
2022-09-07T10:41:10.836Z,28.2
2022-09-07T10:42:13.337Z,28.2
2022-09-07T10:44:20.810Z,28.2
2022-09-07T10:45:23.341Z,28.2
2022-09-07T10:47:31.056Z,28.2
2022-09-07T10:48:33.821Z,28.2
2022-09-07T10:49:36.062Z,28.2
2022-09-07T10:50:39.006Z,28.2
2022-09-07T10:51:40.927Z,28.2
2022-09-07T10:52:43.137Z,28.2
2022-09-07T10:53:46.395Z,28.2
2022-09-07T10:54:53.680Z,28.2
2022-09-07T10:55:56.302Z,28.2
2022-09-07T10:56:58.823Z,28.1
2022-09-07T10:58:01.313Z,28.2
2022-09-07T10:59:05.278Z,28.2
2022-09-07T11:00:10.519Z,28.2
2022-09-07T11:01:13.925Z,28.2
2022-09-07T11:02:16.885Z,28.2
2022-09-07T11:04:24.284Z,28.2
2022-09-07T11:06:31.216Z,28.2
2022-09-07T11:07:33.160Z,28.2
2022-09-07T11:09:40.372Z,28.2
2022-09-07T11:10:42.320Z,28.2
2022-09-07T11:12:49.795Z,28.2
2022-09-07T11:14:57.020Z,28.2
2022-09-07T11:15:59.764Z,28.2
2022-09-07T11:17:02.884Z,28.2
2022-09-07T11:18:05.382Z,28.2
2022-09-07T11:20:12.606Z,28.2
2022-09-07T11:21:15.291Z,28.2
2022-09-07T11:22:21.490Z,28.2
2022-09-07T11:23:23.972Z,28.2
2022-09-07T11:24:25.896Z,28.2
2022-09-07T11:26:33.125Z,28.2
2022-09-07T11:27:35.617Z,28.2
2022-09-07T11:28:38.112Z,28.2
2022-09-07T11:29:40.348Z,28.2
2022-09-07T11:30:42.870Z,28.2
2022-09-07T11:31:45.549Z,28.2
2022-09-07T11:32:48.106Z,28.2
2022-09-07T11:34:55.762Z,28.2
2022-09-07T11:35:57.992Z,28.2
2022-09-07T11:37:00.215Z,28.2
2022-09-07T11:38:02.693Z,28.2
2022-09-07T11:39:05.177Z,28.2
2022-09-07T11:40:08.131Z,28.2
2022-09-07T11:41:10.711Z,28.2
2022-09-07T11:43:18.246Z,28.2
2022-09-07T11:44:20.738Z,28.2
2022-09-07T11:45:23.869Z,28.2
2022-09-07T11:46:26.356Z,28.2
2022-09-07T11:47:29.049Z,28.2
2022-09-07T11:48:32.773Z,28.2
2022-09-07T11:49:36.305Z,28.2
2022-09-07T11:50:38.517Z,28.2
2022-09-07T11:51:40.713Z,28.2
2022-09-07T11:52:43.183Z,28.2
2022-09-07T11:53:45.395Z,28.2
2022-09-07T11:54:47.613Z,28.2
2022-09-07T11:55:49.823Z,28.2
2022-09-07T11:56:52.017Z,28.2
2022-09-07T11:58:59.217Z,28.2
2022-09-07T12:00:01.709Z,28.2
2022-09-07T12:01:04.196Z,28.2
2022-09-07T12:02:06.909Z,28.2
2022-09-07T12:03:09.804Z,28.2
2022-09-07T12:05:17.410Z,28.2
2022-09-07T12:06:19.915Z,28.2
2022-09-07T12:07:22.402Z,28.2
2022-09-07T12:08:24.893Z,28.2
2022-09-07T12:09:27.173Z,28.2
2022-09-07T12:10:29.640Z,28.2
2022-09-07T12:11:32.129Z,28.2
2022-09-07T12:12:34.339Z,28.2
2022-09-07T12:13:36.291Z,28.2
2022-09-07T12:14:38.483Z,28.2
2022-09-07T12:15:41.125Z,28.2
2022-09-07T12:16:43.853Z,28.2
2022-09-07T12:17:46.359Z,28.2
2022-09-07T12:18:48.612Z,28.2
2022-09-07T12:19:51.145Z,28.2
2022-09-07T12:20:53.778Z,28.2
2022-09-07T12:21:56.301Z,28.2
2022-09-07T12:24:03.500Z,28.2
2022-09-07T12:25:05.712Z,28.2
2022-09-07T12:26:07.624Z,28.2
2022-09-07T12:27:10.098Z,28.2
2022-09-07T12:28:12.315Z,28.2
2022-09-07T12:29:14.286Z,28.2
2022-09-07T12:30:16.777Z,28.2
2022-09-07T12:31:19.517Z,28.3
2022-09-07T12:33:27.897Z,28.3
2022-09-07T12:34:30.401Z,28.2
2022-09-07T12:35:32.598Z,28.2
2022-09-07T12:36:34.907Z,28.2
2022-09-07T12:37:37.204Z,28.2
2022-09-07T12:38:39.415Z,28.2
2022-09-07T12:39:42.062Z,28.2
2022-09-07T12:40:44.440Z,28.2
2022-09-07T12:41:48.861Z,28.2
2022-09-07T12:42:51.654Z,28.2
2022-09-07T12:43:54.155Z,28.2
2022-09-07T12:44:56.628Z,28.2
2022-09-07T12:45:59.259Z,28.2
2022-09-07T12:47:01.931Z,28.2
2022-09-07T12:48:05.346Z,28.2
2022-09-07T12:49:07.838Z,28.2
2022-09-07T12:50:11.158Z,28.2
2022-09-07T12:51:14.486Z,28.2
2022-09-07T12:52:17.694Z,28.2
2022-09-07T12:53:20.254Z,28.2
2022-09-07T12:54:22.737Z,28.2
2022-09-07T12:56:30.204Z,28.2
2022-09-07T12:57:32.724Z,28.2
2022-09-07T12:58:34.947Z,28.2
2022-09-07T12:59:37.126Z,28.2
2022-09-07T13:00:40.478Z,28.2
2022-09-07T13:01:43.339Z,28.2
2022-09-07T13:02:46.837Z,28.2
2022-09-07T13:03:52.685Z,28.2
2022-09-07T13:04:54.893Z,28.2
2022-09-07T13:05:57.128Z,28.2
2022-09-07T13:09:09.746Z,28.2
2022-09-07T13:10:12.024Z,28.2
2022-09-07T13:11:14.503Z,28.2
2022-09-07T13:14:26.971Z,28.2
2022-09-07T13:15:29.625Z,28.2
2022-09-07T13:17:38.023Z,28.2
2022-09-07T13:18:40.506Z,28.2
2022-09-07T13:19:42.738Z,28.2
2022-09-07T13:20:45.211Z,28.2
2022-09-07T13:21:47.683Z,28.2
2022-09-07T13:22:49.581Z,28.2
2022-09-07T13:23:53.122Z,28.2
2022-09-07T13:24:55.509Z,28.2
2022-09-07T13:25:58.087Z,28.2
2022-09-07T13:27:00.286Z,28.2
2022-09-07T13:28:02.773Z,28.2
2022-09-07T13:29:05.303Z,28.2
2022-09-07T13:30:08.314Z,28.2
2022-09-07T13:31:11.128Z,28.2
2022-09-07T13:32:14.443Z,28.2
2022-09-07T13:33:17.893Z,28.2
2022-09-07T13:34:20.382Z,28.2
2022-09-07T13:35:22.622Z,28.2
2022-09-07T13:36:25.107Z,28.2
2022-09-07T13:37:28.979Z,28.2
2022-09-07T13:38:31.487Z,28.2
2022-09-07T13:39:33.855Z,28.2
2022-09-07T13:40:36.563Z,28.2
2022-09-07T13:41:38.893Z,28.2
2022-09-07T13:42:41.392Z,28.2
2022-09-07T13:43:43.639Z,28.2
2022-09-07T13:44:46.136Z,28.2
2022-09-07T13:45:48.353Z,28.2
2022-09-07T13:46:50.982Z,28.2
2022-09-07T13:47:53.464Z,28.2
2022-09-07T13:48:56.022Z,28.2
2022-09-07T13:49:58.539Z,28.2
2022-09-07T13:51:01.059Z,28.2
2022-09-07T13:52:03.267Z,28.2
2022-09-07T13:53:05.739Z,28.2
2022-09-07T13:54:08.218Z,28.3
2022-09-07T13:55:10.698Z,28.3
2022-09-07T13:56:12.946Z,28.3
2022-09-07T13:57:15.526Z,28.3
2022-09-07T13:58:17.731Z,28.3
2022-09-07T13:59:20.223Z,28.3
2022-09-07T14:00:22.122Z,28.3
2022-09-07T14:01:25.011Z,28.3
2022-09-07T14:02:27.357Z,28.3
2022-09-07T14:03:30.183Z,28.3
2022-09-07T14:04:32.777Z,28.3
2022-09-07T14:05:35.004Z,28.3
2022-09-07T14:06:37.500Z,28.3
2022-09-07T14:07:39.988Z,28.3
2022-09-07T14:08:42.197Z,28.3
2022-09-07T14:09:44.404Z,28.3
2022-09-07T14:10:46.608Z,28.3
2022-09-07T14:11:49.155Z,28.3
2022-09-07T14:12:51.692Z,28.2
2022-09-07T14:13:54.198Z,28.3
2022-09-07T14:14:56.674Z,28.3
2022-09-07T14:15:58.920Z,28.3
2022-09-07T14:17:01.734Z,28.2
2022-09-07T14:18:04.165Z,28.2
2022-09-07T14:19:06.362Z,28.3
2022-09-07T14:20:08.622Z,28.3
2022-09-07T14:21:11.109Z,28.3
2022-09-07T14:22:13.050Z,28.2
2022-09-07T14:23:15.247Z,28.3
2022-09-07T14:24:17.726Z,28.2
2022-09-07T14:25:19.663Z,28.2
2022-09-07T14:26:22.147Z,28.3
2022-09-07T14:27:24.738Z,28.2
2022-09-07T14:28:26.967Z,28.2
2022-09-07T14:29:29.449Z,28.2
2022-09-07T14:30:32.152Z,28.2
2022-09-07T14:31:35.768Z,28.2
2022-09-07T14:32:38.243Z,28.2
2022-09-07T14:34:45.714Z,28.2
2022-09-07T14:35:48.333Z,28.2
2022-09-07T14:36:50.529Z,28.2
2022-09-07T14:37:53.769Z,28.2
2022-09-07T14:40:01.551Z,28.2
2022-09-07T14:41:04.317Z,28.2
2022-09-07T14:42:08.118Z,28.2
2022-09-07T14:43:10.202Z,28.2
2022-09-07T14:44:12.711Z,28.2
2022-09-07T14:45:14.936Z,28.2
2022-09-07T14:46:17.558Z,28.2
2022-09-07T14:47:20.289Z,28.2
2022-09-07T14:49:29.195Z,28.2
2022-09-07T14:50:31.923Z,28.2
2022-09-07T14:54:16.235Z,28.2
2022-09-07T14:55:18.831Z,28.2
2022-09-07T14:56:21.309Z,28.2
2022-09-07T14:57:23.778Z,28.2
2022-09-07T14:58:26.382Z,28.2
2022-09-07T14:59:28.901Z,28.2
2022-09-07T15:00:31.393Z,28.2
2022-09-07T15:02:39.054Z,28.3
2022-09-07T15:03:41.166Z,28.2
2022-09-07T15:04:43.490Z,28.3
2022-09-07T15:05:46.058Z,28.2
2022-09-07T15:07:53.549Z,28.3